Time;durP1;ratioP1;P1;durP2;ratioP2;P2;SDS_P1;SDS_P2;PMS_P1;PMS_P2;Temp;Humidity;BMP_temperature;BMP_pressure;BME280_temperature;BME280_humidity;BME280_pressure;Samples;Min_cycle;Max_cycle;Signal;HPM_P1;HPM_P2
2023/01/06 00:01:23;;;;;;;;;;;;;;;3.28;100.00;97347.13;5039301;28;19917;-69
2023/01/06 00:03:50;;;;;;;;;;;;;;;3.23;100.00;97348.84;5061937;28;19924;-69
2023/01/06 00:06:16;;;;;;;;;;;;;;;3.23;100.00;97348.84;5063990;28;19947;-69
2023/01/06 00:08:41;;;;;;;;;;;;;;;3.26;100.00;97342.06;5062275;28;19920;-68
2023/01/06 00:11:07;;;;;;;;;;;;;;;3.22;100.00;97336.44;5050173;28;20597;-70
2023/01/06 00:13:32;;;;;;;;;;;;;;;3.17;100.00;97327.59;5061922;28;19920;-70
2023/01/06 00:16:01;;;;;;;;;;;;;;;3.19;100.00;97328.13;5061434;28;20007;-70
2023/01/06 00:18:27;;;;;;;;;;;;;;;3.24;100.00;97328.00;5056693;28;20019;-68
2023/01/06 00:20:52;;;;;;;;;;;;;;;3.15;100.00;97321.69;5061284;28;20003;-68
2023/01/06 00:23:17;;;;;;;;;;;;;;;3.14;100.00;97328.22;5056895;28;19952;-69
2023/01/06 00:25:49;;;;;;;;;;;;;;;3.15;100.00;97322.50;5061066;28;19916;-69
2023/01/06 00:28:14;;;;;;;;;;;;;;;3.16;100.00;97321.38;5060050;28;19920;-69
2023/01/06 00:30:39;;;;;;;;;;;;;;;3.08;100.00;97319.41;5065279;28;20367;-69
2023/01/06 00:33:05;;;;;;;;;;;;;;;3.15;100.00;97318.97;5061214;28;19925;-69
2023/01/06 00:35:30;;;;;;;;;;;;;;;3.21;100.00;97318.59;5060262;28;19924;-69
2023/01/06 00:37:55;;;;;;;;;;;;;;;3.18;100.00;97311.06;5065290;28;20487;-69
2023/01/06 00:40:21;;;;;;;;;;;;;;;3.14;100.00;97310.06;5060880;28;20540;-69
2023/01/06 00:42:46;;;;;;;;;;;;;;;3.20;100.00;97310.75;5066060;28;19924;-69
2023/01/06 00:45:11;;;;;;;;;;;;;;;3.25;100.00;97310.66;5059225;28;20448;-70
2023/01/06 00:47:36;;;;;;;;;;;;;;;3.25;100.00;97311.44;5065576;28;19923;-69
2023/01/06 00:50:02;;;;;;;;;;;;;;;3.23;100.00;97308.25;5063238;28;19923;-70
2023/01/06 00:52:27;;;;;;;;;;;;;;;3.12;100.00;97312.28;5062071;28;19921;-69
2023/01/06 00:54:52;;;;;;;;;;;;;;;3.08;100.00;97300.47;5065316;28;19920;-69
2023/01/06 00:57:18;;;;;;;;;;;;;;;3.02;100.00;97304.38;5064815;28;19951;-69
2023/01/06 00:59:43;;;;;;;;;;;;;;;2.98;100.00;97304.16;5068709;28;19920;-69
2023/01/06 01:02:08;;;;;;;;;;;;;;;2.95;100.00;97298.56;5058559;28;19917;-69
2023/01/06 01:04:34;;;;;;;;;;;;;;;2.92;100.00;97293.75;5065192;28;20388;-68
2023/01/06 01:06:59;;;;;;;;;;;;;;;2.96;100.00;97298.25;5064596;28;19916;-70
2023/01/06 01:09:26;;;;;;;;;;;;;;;2.95;100.00;97299.34;5062880;28;19975;-68
2023/01/06 01:14:49;;;;;;;;;;;;;;;2.80;100.00;97305.09;5044288;28;20398;-69
2023/01/06 01:17:18;;;;;;;;;;;;;;;2.73;100.00;97302.78;5039325;28;19944;-68
2023/01/06 01:19:43;;;;;;;;;;;;;;;2.78;100.00;97305.38;5062766;28;19920;-68
2023/01/06 01:22:08;;;;;;;;;;;;;;;2.70;100.00;97314.19;5059897;28;20300;-68
2023/01/06 01:24:34;;;;;;;;;;;;;;;2.58;100.00;97303.88;5064345;28;19974;-68
2023/01/06 01:26:59;;;;;;;;;;;;;;;2.58;100.00;97298.47;5065097;28;19917;-70
2023/01/06 01:29:25;;;;;;;;;;;;;;;2.56;100.00;97297.19;5060340;28;19916;-68
2023/01/06 01:31:50;;;;;;;;;;;;;;;2.61;100.00;97295.19;5062892;28;19966;-70
2023/01/06 01:34:16;;;;;;;;;;;;;;;2.67;100.00;97299.38;5060172;28;20396;-71
2023/01/06 01:36:43;;;;;;;;;;;;;;;2.73;100.00;97297.38;5064188;28;20390;-69
2023/01/06 01:39:08;;;;;;;;;;;;;;;2.75;100.00;97297.88;5060426;28;20800;-69
2023/01/06 01:41:33;;;;;;;;;;;;;;;2.80;100.00;97289.66;5065358;28;19921;-69
2023/01/06 01:44:00;;;;;;;;;;;;;;;2.79;100.00;97292.66;5064247;28;19921;-68
2023/01/06 01:46:51;;;;;;;;;;;;;;;2.76;100.00;97298.69;5059475;28;19923;-70
2023/01/06 01:49:19;;;;;;;;;;;;;;;2.74;100.00;97300.88;5055781;28;19917;-70
2023/01/06 01:51:45;;;;;;;;;;;;;;;2.70;100.00;97299.88;5064349;28;19924;-68
2023/01/06 01:54:22;;;;;;;;;;;;;;;2.68;100.00;97306.41;5059290;28;20332;-69
2023/01/06 01:56:51;;;;;;;;;;;;;;;2.66;100.00;97302.38;5053980;28;20361;-68
2023/01/06 01:59:19;;;;;;;;;;;;;;;2.74;100.00;97298.16;5060449;28;19979;-68
2023/01/06 02:01:45;;;;;;;;;;;;;;;2.64;100.00;97291.84;5066511;28;20269;-68
2023/01/06 02:04:10;;;;;;;;;;;;;;;2.59;100.00;97288.44;5062410;28;20015;-68
2023/01/06 02:06:35;;;;;;;;;;;;;;;2.63;100.00;97286.75;5071623;28;19960;-69
2023/01/06 02:09:07;;;;;;;;;;;;;;;2.57;100.00;97294.16;5067866;28;19921;-69
2023/01/06 02:11:34;;;;;;;;;;;;;;;2.60;100.00;97285.44;5047392;28;19924;-65
2023/01/06 02:14:05;;;;;;;;;;;;;;;2.59;100.00;97283.88;5043515;28;19921;-66
2023/01/06 02:16:38;;;;;;;;;;;;;;;2.47;100.00;97278.94;5043641;28;20384;-66
2023/01/06 02:19:03;;;;;;;;;;;;;;;2.39;100.00;97276.13;5052965;28;20357;-64
2023/01/06 02:21:29;;;;;;;;;;;;;;;2.38;100.00;97279.94;5063348;28;19947;-65
2023/01/06 02:24:17;;;;;;;;;;;;;;;2.40;100.00;97277.75;5064206;28;19943;-66
2023/01/06 02:26:45;;;;;;;;;;;;;;;2.42;100.00;97281.72;5049342;28;19916;-66
2023/01/06 02:29:11;;;;;;;;;;;;;;;2.46;100.00;97276.53;5058880;28;19944;-65
2023/01/06 02:31:42;;;;;;;;;;;;;;;2.44;100.00;97279.53;5064111;28;19917;-66
2023/01/06 02:34:20;;;;;;;;;;;;;;;2.33;100.00;97269.22;5060008;28;19978;-64
2023/01/06 02:37:06;;;;;;;;;;;;;;;2.28;100.00;97270.09;5064828;28;19963;-67
2023/01/06 02:40:06;;;;;;;;;;;;;;;2.35;100.00;97269.72;5012302;28;19921;-66
2023/01/06 02:42:32;;;;;;;;;;;;;;;2.39;100.00;97278.81;4965211;28;19921;-66
2023/01/06 02:45:06;;;;;;;;;;;;;;;2.25;100.00;97270.69;5046981;28;20019;-66
2023/01/06 02:47:34;;;;;;;;;;;;;;;2.37;100.00;97271.00;5066524;28;19916;-67
2023/01/06 02:50:02;;;;;;;;;;;;;;;2.41;100.00;97268.50;5063094;28;19983;-66
2023/01/06 02:52:37;;;;;;;;;;;;;;;2.38;100.00;97266.44;5060256;28;19994;-65
2023/01/06 02:55:07;;;;;;;;;;;;;;;2.37;100.00;97262.91;5063114;28;19959;-65
2023/01/06 02:57:38;;;;;;;;;;;;;;;2.27;100.00;97255.78;5064165;28;19921;-67
2023/01/06 03:00:10;;;;;;;;;;;;;;;1.92;100.00;97252.63;5059525;28;19971;-64
2023/01/06 03:02:36;;;;;;;;;;;;;;;1.85;100.00;97257.59;5062854;28;20347;-64
2023/01/06 03:05:04;;;;;;;;;;;;;;;1.87;100.00;97255.44;5047704;28;19921;-63
2023/01/06 03:07:31;;;;;;;;;;;;;;;1.68;100.00;97263.56;5054367;28;19946;-65
2023/01/06 03:09:57;;;;;;;;;;;;;;;1.68;100.00;97254.66;5053886;28;19924;-65
2023/01/06 03:12:41;;;;;;;;;;;;;;;1.71;100.00;97259.47;5042337;28;22069;-64
2023/01/06 03:15:07;;;;;;;;;;;;;;;1.68;100.00;97262.75;5049297;28;19916;-65
2023/01/06 03:17:32;;;;;;;;;;;;;;;1.59;100.00;97267.25;5062873;28;19917;-63
2023/01/06 03:19:58;;;;;;;;;;;;;;;1.49;100.00;97271.66;5062994;28;19920;-65
2023/01/06 03:22:24;;;;;;;;;;;;;;;1.43;100.00;97267.47;5058389;28;19943;-65
2023/01/06 03:24:49;;;;;;;;;;;;;;;1.31;100.00;97272.50;5062628;28;20337;-65
2023/01/06 03:27:17;;;;;;;;;;;;;;;1.20;100.00;97274.53;5057836;28;19953;-65
2023/01/06 03:29:42;;;;;;;;;;;;;;;1.25;100.00;97266.38;5061967;28;19917;-66
2023/01/06 03:32:26;;;;;;;;;;;;;;;1.34;100.00;97267.31;5057538;28;19923;-65
2023/01/06 03:35:04;;;;;;;;;;;;;;;1.52;100.00;97260.28;5063194;28;19917;-66
2023/01/06 03:37:29;;;;;;;;;;;;;;;1.70;100.00;97263.28;5061815;28;19920;-66
2023/01/06 03:39:55;;;;;;;;;;;;;;;1.82;100.00;97262.78;5062154;28;19923;-66
2023/01/06 03:45:27;;;;;;;;;;;;;;;1.91;100.00;97261.84;5056912;28;19943;-65
2023/01/06 03:47:52;;;;;;;;;;;;;;;2.01;100.00;97254.66;5062496;28;19959;-65
2023/01/06 03:50:41;;;;;;;;;;;;;;;2.06;100.00;97260.75;5057369;28;19944;-64
2023/01/06 03:53:06;;;;;;;;;;;;;;;2.14;100.00;97250.38;5057275;28;19974;-65
2023/01/06 03:55:32;;;;;;;;;;;;;;;2.19;100.00;97250.28;5062244;28;19917;-68
2023/01/06 03:57:59;;;;;;;;;;;;;;;2.16;100.00;97245.47;5062015;28;19916;-65
2023/01/06 04:00:30;;;;;;;;;;;;;;;2.16;100.00;97253.56;5056782;28;19923;-65
2023/01/06 04:02:56;;;;;;;;;;;;;;;2.04;100.00;97260.25;5061799;28;20010;-64
2023/01/06 04:05:27;;;;;;;;;;;;;;;1.98;100.00;97256.06;5056469;28;20673;-66
2023/01/06 04:07:52;;;;;;;;;;;;;;;1.81;100.00;97256.59;5064043;28;19916;-65
2023/01/06 04:10:18;;;;;;;;;;;;;;;1.72;100.00;97263.78;5054288;28;19917;-64
2023/01/06 04:12:44;;;;;;;;;;;;;;;1.56;100.00;97265.91;5042447;28;19931;-65
2023/01/06 04:15:13;;;;;;;;;;;;;;;1.59;100.00;97265.34;5049384;28;19916;-65
2023/01/06 04:17:38;;;;;;;;;;;;;;;1.64;100.00;97265.25;5061786;28;19916;-65
2023/01/06 04:20:05;;;;;;;;;;;;;;;1.64;100.00;97265.25;5044336;28;19916;-64
2023/01/06 04:22:30;;;;;;;;;;;;;;;1.66;100.00;97268.47;5061672;28;19924;-65
2023/01/06 04:24:56;;;;;;;;;;;;;;;1.52;100.00;97268.41;5063965;28;19917;-66
2023/01/06 04:27:21;;;;;;;;;;;;;;;1.21;100.00;97262.66;5059967;28;20670;-65
2023/01/06 04:29:46;;;;;;;;;;;;;;;1.08;100.00;97256.09;5062734;28;19920;-66
2023/01/06 04:32:12;;;;;;;;;;;;;;;1.00;100.00;97253.25;5057842;28;19943;-65
2023/01/06 04:34:37;;;;;;;;;;;;;;;0.98;100.00;97263.53;5060055;28;19967;-65
2023/01/06 04:37:02;;;;;;;;;;;;;;;1.03;100.00;97256.16;5059894;28;19917;-64
2023/01/06 04:39:28;;;;;;;;;;;;;;;1.09;100.00;97257.69;5059051;28;20337;-65
2023/01/06 04:41:53;;;;;;;;;;;;;;;1.10;100.00;97259.31;5061808;28;19917;-65
2023/01/06 04:44:18;;;;;;;;;;;;;;;1.09;100.00;97259.59;5056943;28;20289;-65
2023/01/06 04:46:43;;;;;;;;;;;;;;;1.06;100.00;97258.28;5061692;28;19920;-64
2023/01/06 04:49:09;;;;;;;;;;;;;;;1.13;100.00;97264.13;5056842;28;19916;-65
2023/01/06 04:51:34;;;;;;;;;;;;;;;1.30;100.00;97268.22;5061510;28;19928;-64
2023/01/06 04:53:59;;;;;;;;;;;;;;;1.42;100.00;97267.75;5061226;28;19920;-65
2023/01/06 04:56:25;;;;;;;;;;;;;;;1.40;100.00;97273.44;5055590;28;19924;-65
2023/01/06 04:58:54;;;;;;;;;;;;;;;1.43;100.00;97274.75;5062177;28;19960;-64
2023/01/06 05:01:19;;;;;;;;;;;;;;;1.45;100.00;97275.28;5056739;28;19917;-65
2023/01/06 05:03:44;;;;;;;;;;;;;;;1.56;100.00;97284.81;5060914;28;19920;-65
2023/01/06 05:06:10;;;;;;;;;;;;;;;1.77;100.00;97279.09;5056236;28;19947;-65
2023/01/06 05:08:36;;;;;;;;;;;;;;;1.84;100.00;97280.31;5062969;28;19960;-65
2023/01/06 05:11:03;;;;;;;;;;;;;;;2.06;100.00;97284.28;5053219;28;19916;-64
2023/01/06 05:13:30;;;;;;;;;;;;;;;2.22;100.00;97282.13;5061423;28;19921;-67
2023/01/06 05:15:55;;;;;;;;;;;;;;;2.33;100.00;97285.44;5064902;28;19921;-64
2023/01/06 05:18:20;;;;;;;;;;;;;;;2.29;100.00;97280.63;5060056;28;20018;-65
2023/01/06 05:20:50;;;;;;;;;;;;;;;2.25;100.00;97281.50;5064673;28;20344;-65
2023/01/06 05:23:15;;;;;;;;;;;;;;;2.24;100.00;97288.81;5060405;28;20300;-63
2023/01/06 05:25:40;;;;;;;;;;;;;;;2.14;100.00;97280.88;5063996;28;19962;-65
2023/01/06 05:28:06;;;;;;;;;;;;;;;2.10;100.00;97290.69;5060383;28;19917;-65
2023/01/06 05:30:31;;;;;;;;;;;;;;;2.46;100.00;97293.53;5064072;28;20412;-65
2023/01/06 05:32:56;;;;;;;;;;;;;;;2.58;100.00;97297.69;5064284;28;19927;-65
2023/01/06 05:35:21;;;;;;;;;;;;;;;2.62;100.00;97298.69;5059811;28;20623;-63
2023/01/06 05:37:47;;;;;;;;;;;;;;;2.71;100.00;97306.91;5062791;28;19920;-66
2023/01/06 05:40:12;;;;;;;;;;;;;;;2.74;100.00;97304.41;5059431;28;19917;-65
2023/01/06 05:42:37;;;;;;;;;;;;;;;2.53;100.00;97301.28;5064893;28;20006;-64
2023/01/06 05:45:02;;;;;;;;;;;;;;;2.57;100.00;97304.97;5061746;28;19924;-63
2023/01/06 05:47:28;;;;;;;;;;;;;;;2.56;100.00;97311.50;5062724;28;20004;-64
2023/01/06 05:49:53;;;;;;;;;;;;;;;2.29;100.00;97312.25;5064133;28;19924;-64
2023/01/06 05:52:18;;;;;;;;;;;;;;;2.32;100.00;97319.75;5061258;28;19916;-66
2023/01/06 05:54:43;;;;;;;;;;;;;;;2.37;100.00;97318.88;5072530;28;19921;-65
2023/01/06 05:57:10;;;;;;;;;;;;;;;2.35;100.00;97316.47;5063175;28;19923;-64
2023/01/06 05:59:35;;;;;;;;;;;;;;;2.39;100.00;97308.56;5065073;28;19916;-65
2023/01/06 06:02:00;;;;;;;;;;;;;;;2.53;100.00;97309.38;5064098;28;19977;-65
2023/01/06 06:04:26;;;;;;;;;;;;;;;2.62;100.00;97309.50;5060049;28;19923;-68
2023/01/06 06:06:51;;;;;;;;;;;;;;;2.59;100.00;97304.69;5064235;28;19963;-65
2023/01/06 06:09:16;;;;;;;;;;;;;;;2.76;100.00;97317.63;5059515;28;19982;-67
2023/01/06 06:11:42;;;;;;;;;;;;;;;2.97;100.00;97316.13;5065100;28;19921;-66
2023/01/06 06:14:08;;;;;;;;;;;;;;;3.09;100.00;97314.78;5058421;28;19924;-66
2023/01/06 06:16:33;;;;;;;;;;;;;;;3.21;100.00;97306.97;5063585;28;19923;-65
2023/01/06 06:18:59;;;;;;;;;;;;;;;3.31;100.00;97316.75;5063692;28;19932;-66
2023/01/06 06:21:25;;;;;;;;;;;;;;;3.36;100.00;97313.94;5058772;28;19956;-66
2023/01/06 06:23:51;;;;;;;;;;;;;;;3.30;100.00;97309.75;5062863;28;19923;-66
2023/01/06 06:26:17;;;;;;;;;;;;;;;3.03;100.00;97300.56;5059543;28;20426;-66
2023/01/06 06:28:42;;;;;;;;;;;;;;;3.03;100.00;97300.56;5063886;28;19921;-66
2023/01/06 06:31:09;;;;;;;;;;;;;;;3.32;100.00;97297.50;5058485;28;19928;-66
2023/01/06 06:33:35;;;;;;;;;;;;;;;3.54;100.00;97304.84;5063036;28;19925;-66
2023/01/06 06:36:00;;;;;;;;;;;;;;;3.67;100.00;97303.19;5062192;28;19916;-65
2023/01/06 06:38:26;;;;;;;;;;;;;;;3.71;100.00;97308.81;5062347;28;19917;-64
2023/01/06 06:40:51;;;;;;;;;;;;;;;3.79;100.00;97310.81;5066924;28;19923;-64
2023/01/06 06:43:16;;;;;;;;;;;;;;;3.94;100.00;97310.44;5058674;28;19916;-64
2023/01/06 06:45:47;;;;;;;;;;;;;;;4.11;100.00;97306.25;5062858;28;19963;-65
2023/01/06 06:48:13;;;;;;;;;;;;;;;4.27;100.00;97306.63;5057547;28;19916;-66
2023/01/06 06:50:38;;;;;;;;;;;;;;;4.29;100.00;97309.84;5062732;28;19917;-66
2023/01/06 06:53:04;;;;;;;;;;;;;;;4.15;100.00;97294.47;5059782;28;20141;-64
2023/01/06 06:55:29;;;;;;;;;;;;;;;4.26;100.00;97291.50;5063276;28;20034;-66
2023/01/06 06:57:55;;;;;;;;;;;;;;;4.42;100.00;97298.13;5062928;28;20011;-65
2023/01/06 07:00:20;;;;;;;;;;;;;;;4.34;100.00;97299.69;5057904;28;19928;-66
2023/01/06 07:02:46;;;;;;;;;;;;;;;4.24;100.00;97299.94;5063583;28;20015;-66
2023/01/06 07:05:12;;;;;;;;;;;;;;;4.27;100.00;97304.75;5057696;28;19982;-66
2023/01/06 07:07:37;;;;;;;;;;;;;;;4.21;100.00;97301.38;5063480;28;19916;-65
2023/01/06 07:10:02;;;;;;;;;;;;;;;4.15;100.00;97299.88;5052230;28;19939;-64
2023/01/06 07:12:27;;;;;;;;;;;;;;;4.17;100.00;97299.56;5060683;28;19929;-65
2023/01/06 07:14:53;;;;;;;;;;;;;;;4.21;100.00;97305.97;5068085;28;19916;-64
2023/01/06 07:17:18;;;;;;;;;;;;;;;4.27;100.00;97303.91;5078946;28;19962;-67
2023/01/06 07:19:43;;;;;;;;;;;;;;;4.40;100.00;97303.84;5062587;28;19924;-65
2023/01/06 07:22:08;;;;;;;;;;;;;;;4.52;100.00;97311.41;5056825;28;20496;-66
2023/01/06 07:24:34;;;;;;;;;;;;;;;4.65;100.00;97304.28;5061868;28;19926;-66
2023/01/06 07:26:59;;;;;;;;;;;;;;;4.70;100.00;97303.31;5063299;28;19920;-66
2023/01/06 07:29:24;;;;;;;;;;;;;;;4.68;100.00;97311.81;5058305;28;19917;-66
2023/01/06 07:31:50;;;;;;;;;;;;;;;4.59;100.00;97300.09;5065842;28;20336;-66
2023/01/06 07:34:15;;;;;;;;;;;;;;;4.67;100.00;97314.84;5058554;28;20015;-66
2023/01/06 07:36:40;;;;;;;;;;;;;;;4.69;100.00;97307.97;5061003;28;19917;-65
2023/01/06 07:39:06;;;;;;;;;;;;;;;4.71;100.00;97307.66;5056776;28;19994;-64
2023/01/06 07:41:31;;;;;;;;;;;;;;;4.73;100.00;97314.34;5061031;28;19926;-65
2023/01/06 07:43:56;;;;;;;;;;;;;;;4.76;100.00;97313.75;5062023;28;19921;-65
2023/01/06 07:46:21;;;;;;;;;;;;;;;4.81;100.00;97314.69;5057009;28;19974;-65
2023/01/06 07:48:47;;;;;;;;;;;;;;;4.92;100.00;97327.69;5064102;28;20061;-65
2023/01/06 07:51:12;;;;;;;;;;;;;;;4.91;100.00;97322.56;5058999;28;19964;-64
2023/01/06 07:53:37;;;;;;;;;;;;;;;5.13;100.00;97324.38;5062161;28;19927;-65
2023/01/06 07:56:03;;;;;;;;;;;;;;;5.08;100.00;97319.13;5060298;28;19924;-65
2023/01/06 07:58:28;;;;;;;;;;;;;;;5.11;100.00;97329.34;5058949;28;19916;-66
2023/01/06 08:00:53;;;;;;;;;;;;;;;5.08;100.00;97330.78;5062300;28;20293;-66
2023/01/06 08:03:18;;;;;;;;;;;;;;;5.03;100.00;97332.84;5056921;28;19921;-66
2023/01/06 08:05:44;;;;;;;;;;;;;;;4.97;100.00;97327.56;5061734;28;19921;-66
2023/01/06 08:08:09;;;;;;;;;;;;;;;5.08;100.00;97330.00;5056766;28;19955;-66
2023/01/06 08:10:37;;;;;;;;;;;;;;;5.16;100.00;97337.34;5052970;28;19966;-66
2023/01/06 08:13:03;;;;;;;;;;;;;;;5.02;100.00;97334.75;5060536;28;19924;-63
2023/01/06 08:15:28;;;;;;;;;;;;;;;4.98;100.00;97333.78;5058837;28;20403;-66
2023/01/06 08:17:54;;;;;;;;;;;;;;;4.95;100.00;97328.97;5059203;28;19920;-67
2023/01/06 08:20:19;;;;;;;;;;;;;;;4.99;100.00;97338.09;5068880;28;19939;-67
2023/01/06 08:22:45;;;;;;;;;;;;;;;5.03;100.00;97335.56;5082442;28;19920;-71
2023/01/06 08:25:10;;;;;;;;;;;;;;;5.13;100.00;97335.25;5076511;28;19966;-68
2023/01/06 08:27:35;;;;;;;;;;;;;;;5.22;100.00;97333.38;5081417;28;19916;-71
2023/01/06 08:30:01;;;;;;;;;;;;;;;5.26;100.00;97333.56;5082165;28;19955;-71
2023/01/06 08:32:26;;;;;;;;;;;;;;;5.27;100.00;97324.28;5076989;28;19916;-70
2023/01/06 08:34:51;;;;;;;;;;;;;;;5.32;100.00;97326.84;5080577;28;19916;-70
2023/01/06 08:37:17;;;;;;;;;;;;;;;5.43;100.00;97328.13;5077390;28;19923;-70
2023/01/06 08:39:42;;;;;;;;;;;;;;;5.47;100.00;97339.16;5081953;28;19916;-70
2023/01/06 08:42:07;;;;;;;;;;;;;;;5.60;100.00;97340.94;5075243;28;20008;-71
2023/01/06 08:44:33;;;;;;;;;;;;;;;5.68;100.00;97342.88;5082369;28;19916;-70
2023/01/06 08:46:58;;;;;;;;;;;;;;;5.60;100.00;97340.13;5082679;28;19938;-68
2023/01/06 08:49:23;;;;;;;;;;;;;;;5.61;100.00;97342.53;5082755;28;19916;-69
2023/01/06 08:51:48;;;;;;;;;;;;;;;5.53;100.00;97355.00;5087020;28;20341;-67
2023/01/06 08:54:14;;;;;;;;;;;;;;;5.53;100.00;97355.00;5080838;28;19931;-68
2023/01/06 08:56:39;;;;;;;;;;;;;;;5.65;100.00;97348.94;5085924;28;19916;-69
2023/01/06 08:59:04;;;;;;;;;;;;;;;5.68;100.00;97348.28;5080822;28;19932;-67
2023/01/06 09:01:34;;;;;;;;;;;;;;;6.07;100.00;97348.50;5085599;28;19959;-67
2023/01/06 09:04:00;;;;;;;;;;;;;;;5.84;100.00;97347.84;5086426;28;19926;-67
2023/01/06 09:06:26;;;;;;;;;;;;;;;6.08;100.00;97348.16;5085538;28;19927;-67
2023/01/06 09:08:52;;;;;;;;;;;;;;;5.99;100.00;97349.31;5084434;28;19920;-66
2023/01/06 09:11:18;;;;;;;;;;;;;;;5.78;100.00;97351.81;5045772;28;19924;-68
2023/01/06 09:13:43;;;;;;;;;;;;;;;5.73;100.00;97358.22;5044969;28;19951;-69
2023/01/06 09:16:09;;;;;;;;;;;;;;;5.86;100.00;97359.97;5039718;28;20011;-68
2023/01/06 09:18:35;;;;;;;;;;;;;;;6.11;100.00;97352.97;5054404;28;19920;-69
2023/01/06 09:21:00;;;;;;;;;;;;;;;6.22;100.00;97353.44;5064553;28;19916;-68
2023/01/06 09:23:26;;;;;;;;;;;;;;;6.24;100.00;97353.13;5059586;28;19931;-69
2023/01/06 09:25:51;;;;;;;;;;;;;;;6.31;100.00;97353.44;5064680;28;19927;-69
2023/01/06 09:28:16;;;;;;;;;;;;;;;6.28;100.00;97367.66;5059614;28;20367;-67
2023/01/06 09:30:45;;;;;;;;;;;;;;;6.23;100.00;97368.66;5066442;28;19923;-69
2023/01/06 09:33:10;;;;;;;;;;;;;;;6.23;100.00;97371.38;5059101;28;19947;-69
2023/01/06 09:35:35;;;;;;;;;;;;;;;6.19;100.00;97375.84;5062734;28;19916;-68
2023/01/06 09:38:00;;;;;;;;;;;;;;;6.08;100.00;97372.63;5064719;28;19952;-69
2023/01/06 09:40:31;;;;;;;;;;;;;;;6.23;100.00;97389.59;5059871;28;19970;-69
2023/01/06 09:42:56;;;;;;;;;;;;;;;6.46;100.00;97379.31;5063500;28;19916;-68
2023/01/06 09:45:34;;;;;;;;;;;;;;;6.93;100.00;97386.72;5060558;28;20742;-68
2023/01/06 09:48:01;;;;;;;;;;;;;;;6.81;100.00;97399.13;5064489;28;19917;-69
2023/01/06 09:50:26;;;;;;;;;;;;;;;6.68;100.00;97397.38;5060165;28;19916;-69
2023/01/06 09:52:54;;;;;;;;;;;;;;;6.88;100.00;97404.84;5064178;28;19944;-68
2023/01/06 09:55:27;;;;;;;;;;;;;;;6.98;100.00;97406.41;5059647;28;19916;-68
2023/01/06 09:57:57;;;;;;;;;;;;;;;6.89;100.00;97401.00;5063625;28;20650;-68
2023/01/06 10:00:42;;;;;;;;;;;;;;;6.96;100.00;97402.44;5059623;28;20350;-68
2023/01/06 10:03:18;;;;;;;;;;;;;;;7.10;100.00;97405.75;5059037;28;19921;-68
2023/01/06 10:05:46;;;;;;;;;;;;;;;7.07;100.00;97393.56;5064069;28;19920;-68
2023/01/06 10:08:14;;;;;;;;;;;;;;;7.03;100.00;97394.56;5058710;28;20509;-68
2023/01/06 10:10:45;;;;;;;;;;;;;;;7.17;100.00;97388.91;5060862;28;19952;-68
2023/01/06 10:13:26;;;;;;;;;;;;;;;7.15;100.00;97396.56;5058226;28;19928;-67
2023/01/06 10:16:10;;;;;;;;;;;;;;;7.20;100.00;97402.66;5063755;28;19923;-69
2023/01/06 10:18:44;;;;;;;;;;;;;;;7.09;100.00;97409.59;5064366;28;19923;-70
2023/01/06 10:21:13;;;;;;;;;;;;;;;7.01;100.00;97402.25;5050542;28;19921;-69
2023/01/06 10:23:46;;;;;;;;;;;;;;;7.10;100.00;97399.50;5046349;28;19917;-68
2023/01/06 10:26:14;;;;;;;;;;;;;;;7.11;100.00;97399.16;5059302;28;20285;-68
2023/01/06 10:28:43;;;;;;;;;;;;;;;6.98;100.00;97398.25;5064037;28;19916;-69
2023/01/06 10:31:16;;;;;;;;;;;;;;;7.21;100.00;97398.00;5058209;28;19940;-69
2023/01/06 10:33:51;;;;;;;;;;;;;;;7.15;100.00;97389.22;5054606;28;19921;-69
2023/01/06 10:36:19;;;;;;;;;;;;;;;7.12;100.00;97391.81;5061641;28;19916;-70
2023/01/06 10:38:49;;;;;;;;;;;;;;;7.27;100.00;97383.88;5064942;28;19958;-68
2023/01/06 10:41:44;;;;;;;;;;;;;;;7.23;100.00;97382.13;5059663;28;19953;-68
2023/01/06 10:44:10;;;;;;;;;;;;;;;7.12;100.00;97386.34;5003826;28;19964;-68
2023/01/06 10:46:36;;;;;;;;;;;;;;;7.19;100.00;97381.19;5064007;28;20018;-67
2023/01/06 10:49:02;;;;;;;;;;;;;;;7.19;100.00;97379.25;5063330;28;19975;-68
2023/01/06 10:51:30;;;;;;;;;;;;;;;7.08;100.00;97381.56;5059016;28;19916;-68
2023/01/06 10:53:56;;;;;;;;;;;;;;;7.08;100.00;97381.56;5062421;28;19935;-66
2023/01/06 10:56:23;;;;;;;;;;;;;;;6.86;100.00;97379.88;5058923;28;21556;-67
2023/01/06 10:58:52;;;;;;;;;;;;;;;6.66;100.00;97378.66;5062842;28;19932;-68
2023/01/06 11:01:22;;;;;;;;;;;;;;;6.77;100.00;97387.28;5057043;28;19931;-68
2023/01/06 11:04:02;;;;;;;;;;;;;;;6.89;100.00;97381.13;5062976;28;19920;-68
2023/01/06 11:06:28;;;;;;;;;;;;;;;7.01;100.00;97380.47;5061288;28;19924;-68
2023/01/06 11:08:54;;;;;;;;;;;;;;;7.00;100.00;97385.09;5063699;28;20548;-69
2023/01/06 11:11:19;;;;;;;;;;;;;;;6.94;100.00;97396.50;5043050;28;20046;-69
2023/01/06 11:13:46;;;;;;;;;;;;;;;6.93;100.00;97392.97;5040921;28;19967;-68
2023/01/06 11:16:23;;;;;;;;;;;;;;;6.87;100.00;97395.06;5018759;28;19916;-69
2023/01/06 11:19:02;;;;;;;;;;;;;;;6.79;100.00;97392.38;5053422;28;19943;-68
2023/01/06 11:21:39;;;;;;;;;;;;;;;6.92;100.00;97380.50;5059754;28;19917;-68
2023/01/06 11:24:13;;;;;;;;;;;;;;;6.99;100.00;97391.69;5058014;28;19960;-69
2023/01/06 11:26:42;;;;;;;;;;;;;;;6.97;100.00;97380.31;5062260;28;19923;-68
2023/01/06 11:29:16;;;;;;;;;;;;;;;6.97;100.00;97376.78;5055014;28;20031;-68
2023/01/06 11:31:46;;;;;;;;;;;;;;;7.07;100.00;97370.97;5043615;28;19917;-68
2023/01/06 11:34:18;;;;;;;;;;;;;;;7.20;100.00;97366.44;5056787;28;19921;-69
2023/01/06 11:36:46;;;;;;;;;;;;;;;7.26;100.00;97365.13;5062439;28;19956;-69
2023/01/06 11:39:20;;;;;;;;;;;;;;;7.42;100.00;97365.38;5060369;28;19924;-68
2023/01/06 11:41:46;;;;;;;;;;;;;;;7.58;100.00;97373.75;5063502;28;20289;-69
2023/01/06 11:44:17;;;;;;;;;;;;;;;7.54;100.00;97364.66;5058317;28;19963;-66
2023/01/06 11:47:07;;;;;;;;;;;;;;;7.50;100.00;97353.59;5063087;28;19963;-67
2023/01/06 11:49:38;;;;;;;;;;;;;;;7.54;100.00;97351.00;5054871;28;19935;-68
2023/01/06 11:52:18;;;;;;;;;;;;;;;7.49;100.00;97348.47;5058893;28;19920;-68
2023/01/06 11:54:44;;;;;;;;;;;;;;;7.39;100.00;97342.28;5054899;28;19921;-67
2023/01/06 11:57:15;;;;;;;;;;;;;;;7.29;100.00;97334.47;5058360;28;19920;-69
2023/01/06 11:59:46;;;;;;;;;;;;;;;7.26;100.00;97341.41;5063737;28;19917;-70
2023/01/06 12:02:16;;;;;;;;;;;;;;;7.16;100.00;97332.81;5057844;28;19916;-68
2023/01/06 12:04:46;;;;;;;;;;;;;;;7.06;100.00;97326.59;5062737;28;20373;-70
2023/01/06 12:07:17;;;;;;;;;;;;;;;7.34;100.00;97317.94;5063970;28;19916;-70
2023/01/06 12:09:44;;;;;;;;;;;;;;;7.42;100.00;97322.56;5072717;28;19916;-70
2023/01/06 12:12:11;;;;;;;;;;;;;;;7.50;100.00;97314.66;5041251;28;19924;-70
2023/01/06 12:14:38;;;;;;;;;;;;;;;7.70;100.00;97318.50;5043336;28;19921;-69
2023/01/06 12:17:06;;;;;;;;;;;;;;;7.82;100.00;97313.91;5039968;28;19917;-71
2023/01/06 12:19:52;;;;;;;;;;;;;;;7.71;100.00;97303.75;5061845;28;19916;-70
2023/01/06 12:22:33;;;;;;;;;;;;;;;7.83;100.00;97307.34;5057768;28;19917;-70
2023/01/06 12:24:59;;;;;;;;;;;;;;;8.05;100.00;97305.41;5067467;28;20003;-70
2023/01/06 12:27:42;;;;;;;;;;;;;;;8.44;100.00;97307.94;5062820;28;19976;-70
2023/01/06 12:30:12;;;;;;;;;;;;;;;8.73;100.00;97306.94;5062947;28;19917;-70
2023/01/06 12:32:39;;;;;;;;;;;;;;;8.89;100.00;97305.13;5065658;28;19935;-70
2023/01/06 12:35:05;;;;;;;;;;;;;;;8.98;100.00;97299.56;5060713;28;20007;-70
2023/01/06 12:37:39;;;;;;;;;;;;;;;8.80;100.00;97299.00;5065434;28;20596;-70
2023/01/06 12:40:23;;;;;;;;;;;;;;;9.41;100.00;97297.38;5062400;28;19925;-69
2023/01/06 12:42:57;;;;;;;;;;;;;;;9.51;100.00;97296.94;5065665;28;19962;-69
2023/01/06 12:45:22;;;;;;;;;;;;;;;9.42;100.00;97293.50;5058813;28;20242;-69
2023/01/06 12:47:52;;;;;;;;;;;;;;;8.93;100.00;97292.41;5065745;28;19916;-69
2023/01/06 12:50:23;;;;;;;;;;;;;;;8.55;100.00;97276.31;5061489;28;19916;-69
2023/01/06 12:52:57;;;;;;;;;;;;;;;8.96;100.00;97288.97;5066304;28;19921;-70
2023/01/06 12:55:47;;;;;;;;;;;;;;;8.88;100.00;97284.44;5061525;28;20404;-70
2023/01/06 12:58:15;;;;;;;;;;;;;;;8.64;100.00;97289.88;5060665;28;19920;-70